LIBDLIBR

Guest
Details From LIBD - Bari Palese Macchie
To LIBR - BRINDISI/Casale
Flight Number -
Tags generated
Created
Modified
Stats Distance 61 nm / 113 km
Max Altitude 5,600 ft / 1,707 m
Waypoints 3
Social Downloads 15
Likes 0
Share VATSIM

Download

Looking for another format? Having issues loading an existing format? Contact us
Advertisement - Login to hide

Notes

Basic altitude profile: - Ascent Rate: 2500ft/min - Ascent Speed: 250kts - Cruise Altitude: 35000ft - Cruise Speed: 420kts - Descent Rate: 1500ft/min - Descent Speed: 250kts Options: - Use NATs: yes - Use PACOTS: yes - Use low airways: yes - Use high airways: yes

Route

LIBD FASAN LIBR

ID Type Via Altitude Latitude Longitude Leg Dist Tot Dist Heading (true) Name
O LIBD APT - 0 ft / 0 m 41.13787˚ 16.75832˚ - 0 nm - Bari Palese Macchie
FASAN FIX - 5,600 ft / 1,707 m 40.86389˚ 17.42694˚ 34 nm 34 nm 118° / 119° -
O LIBR APT - 0 ft / 0 m 40.66082˚ 17.94267˚ 26 nm 60 nm 117° / 118° BRINDISI/Casale

Altitude Profile

Advertisement - Login to hide

LIBD

Details ICAO LIBD (BRI)
Name Bari Palese Macchie
Region Italy
Timezone Europe/Rome (UTC+2.0)
Stats Elevation 177 ft / 54 m (AMSL)
Location 41.137865° 16.758318°
Runways 1
Magnetic Variation 3.782° E

METAR

LIBD 230120Z 21004KT 8000 FEW030 18/16 Q1013

Decode

TAF

TAF LIBD 222300Z 2300/2324 VRB06KT 9999 FEW030 TEMPO 2312/2318 TSRA

Decode

Departure Runways

ID Width Length Bearing (true) Bearing (mag) Surface Threshold Offset Overrun Length
07 148 ft / 45 m 9,262 ft / 2,823 m 69.39° 65.61° Asphalt 1,257 ft / 383 m 0 ft / 0 m
25 148 ft / 45 m 9,262 ft / 2,823 m 249.42° 245.64° Asphalt 0 ft / 0 m 194 ft / 59 m

LIBR

Details ICAO LIBR (BDS)
Name BRINDISI/Casale
Region Italy
Timezone Europe/Rome (UTC+2.0)
Stats Elevation 47 ft / 14 m (AMSL)
Location 40.660824° 17.942673°
Runways 2
Magnetic Variation 3.934° E

METAR

LIBR 230120Z VRB02KT CAVOK 19/17 Q1013

Decode

TAF

TAF LIBR 222300Z 2300/2324 VRB05KT 9999 FEW040 BECMG 2309/2312 16014KT TEMPO 2315/2318 TSRA BECMG 2316/2318 VRB05KT

Decode

Destination Runways

ID Width Length Bearing (true) Bearing (mag) Surface Threshold Offset Overrun Length
13 148 ft / 45 m 9,398 ft / 2,865 m 136.56° 132.63° Asphalt 0 ft / 0 m 689 ft / 210 m
23 148 ft / 45 m 6,129 ft / 1,868 m 232.52° 228.59° Asphalt 230 ft / 70 m 0 ft / 0 m
31 148 ft / 45 m 9,398 ft / 2,865 m 316.58° 312.65° Asphalt 0 ft / 0 m 387 ft / 118 m
5 148 ft / 45 m 6,129 ft / 1,868 m 52.51° 48.58° Asphalt 0 ft / 0 m 0 ft / 0 m

Approach Navaids

Runway Type Ident Frequency Range Bearing (true) Bearing (mag) Slope Elevation
31 Localiser IBN 109.50 MHz 18 nm / 33 km 316.88° 312.95° - 48 ft / 15 m (AMSL)
31 Glidescope IBN 109.50 MHz 10 nm / 19 km 316.57° 312.64° 2.50° 94 ft / 29 m (AMSL)

Popular Alternatives